createdAt,value
2023-06-10T00:00:03.033Z,96.10
2023-06-10T00:02:30.479Z,96.10
2023-06-10T00:04:58.545Z,96.10
2023-06-10T00:07:26.056Z,96.30
2023-06-10T00:09:53.379Z,96.30
2023-06-10T00:12:21.541Z,96.20
2023-06-10T00:14:51.528Z,96.20
2023-06-10T00:17:19.060Z,96.30
2023-06-10T00:19:48.205Z,96.40
2023-06-10T00:22:15.939Z,96.60
2023-06-10T00:24:43.643Z,96.70
2023-06-10T00:27:11.347Z,96.70
2023-06-10T00:29:41.200Z,96.80
2023-06-10T00:32:09.193Z,96.80
2023-06-10T00:34:36.812Z,97.20
2023-06-10T00:37:04.540Z,96.90
2023-06-10T00:39:31.988Z,96.90
2023-06-10T00:41:59.588Z,96.90
2023-06-10T00:44:28.156Z,97.00
2023-06-10T00:46:57.253Z,97.00
2023-06-10T00:49:25.065Z,97.10
2023-06-10T00:51:54.399Z,97.00
2023-06-10T00:54:22.351Z,97.00
2023-06-10T00:56:51.227Z,96.90
2023-06-10T00:59:19.580Z,96.80
2023-06-10T01:01:50.997Z,96.80
2023-06-10T01:04:20.978Z,96.90
2023-06-10T01:07:25.843Z,96.90
2023-06-10T01:10:19.157Z,97.00
2023-06-10T01:13:04.752Z,97.00
2023-06-10T01:15:33.178Z,97.10
2023-06-10T01:18:03.891Z,97.20
2023-06-10T01:20:34.431Z,97.10
2023-06-10T01:23:04.308Z,97.20
2023-06-10T01:25:35.851Z,97.10
2023-06-10T01:28:12.274Z,97.30
2023-06-10T01:31:04.465Z,97.40
2023-06-10T01:33:43.863Z,97.40
2023-06-10T01:36:13.733Z,97.30
2023-06-10T01:38:46.178Z,97.30
2023-06-10T01:41:19.217Z,97.20
2023-06-10T01:43:47.308Z,97.00
2023-06-10T01:46:16.264Z,96.90
2023-06-10T01:48:45.377Z,96.80
2023-06-10T01:51:12.717Z,96.70
2023-06-10T01:53:40.053Z,96.70
2023-06-10T01:56:07.372Z,96.60
2023-06-10T01:58:34.666Z,96.60
2023-06-10T02:01:02.158Z,96.70
2023-06-10T02:03:29.667Z,96.70
2023-06-10T02:05:57.952Z,96.70
2023-06-10T02:08:25.476Z,96.60
2023-06-10T02:10:52.815Z,96.60
2023-06-10T02:13:20.180Z,96.60
2023-06-10T02:15:49.012Z,96.50
2023-06-10T02:18:16.942Z,96.50
2023-06-10T02:20:44.248Z,96.50
2023-06-10T02:23:11.553Z,96.70
2023-06-10T02:25:38.837Z,96.90
2023-06-10T02:28:06.253Z,96.90
2023-06-10T02:30:33.559Z,97.00
2023-06-10T02:33:10.929Z,97.20
2023-06-10T02:35:40.117Z,97.20
2023-06-10T02:38:08.608Z,97.20
2023-06-10T02:40:36.135Z,97.20
2023-06-10T02:43:03.577Z,97.20
2023-06-10T02:45:33.199Z,97.00
2023-06-10T02:48:00.714Z,97.00
2023-06-10T02:50:27.983Z,96.90
2023-06-10T02:52:55.285Z,96.80
2023-06-10T02:55:22.744Z,96.80
2023-06-10T02:57:51.662Z,96.70
2023-06-10T03:00:22.822Z,96.60
2023-06-10T03:02:50.445Z,96.50
2023-06-10T03:05:18.293Z,96.30
2023-06-10T03:07:51.151Z,96.20
2023-06-10T03:10:18.399Z,96.10
2023-06-10T03:12:45.918Z,96.10
2023-06-10T03:15:13.621Z,96.10
2023-06-10T03:17:40.982Z,96.10
2023-06-10T03:20:11.538Z,96.20
2023-06-10T03:22:41.845Z,96.10
2023-06-10T03:25:15.412Z,96.10
2023-06-10T03:27:44.468Z,96.20
2023-06-10T03:30:13.649Z,96.20
2023-06-10T03:32:42.281Z,96.20
2023-06-10T03:35:10.202Z,96.10
2023-06-10T03:37:37.782Z,95.90
2023-06-10T03:40:06.417Z,95.70
2023-06-10T03:42:33.855Z,95.50
2023-06-10T03:45:01.211Z,95.50
2023-06-10T03:47:34.524Z,95.40
2023-06-10T03:50:02.204Z,95.40
2023-06-10T03:52:29.526Z,95.00
2023-06-10T03:54:57.217Z,93.90
2023-06-10T03:57:24.560Z,92.70
2023-06-10T03:59:51.852Z,91.20
2023-06-10T04:02:19.388Z,89.30
2023-06-10T04:04:46.724Z,86.50
2023-06-10T04:07:15.230Z,84.90
2023-06-10T04:09:42.511Z,83.10
2023-06-10T04:12:11.544Z,81.90
2023-06-10T04:14:39.090Z,80.20
2023-06-10T04:17:10.026Z,80.10
2023-06-10T04:19:38.979Z,80.40
2023-06-10T04:22:06.494Z,80.70
2023-06-10T04:24:33.832Z,81.50
2023-06-10T04:27:01.891Z,81.90
2023-06-10T04:29:29.647Z,81.60
2023-06-10T04:31:57.082Z,81.60
2023-06-10T04:34:24.476Z,81.30
2023-06-10T04:36:52.188Z,80.60
2023-06-10T04:39:19.646Z,80.30
2023-06-10T04:41:47.510Z,80.80
2023-06-10T04:44:14.917Z,80.50
2023-06-10T04:46:42.275Z,80.60
2023-06-10T04:49:10.918Z,80.80
2023-06-10T04:51:39.326Z,80.80
2023-06-10T04:54:06.701Z,80.80
2023-06-10T04:56:34.404Z,80.80
2023-06-10T04:59:02.016Z,80.80
2023-06-10T05:01:29.605Z,81.50
2023-06-10T05:03:57.103Z,81.30
2023-06-10T05:06:24.489Z,81.60
2023-06-10T05:08:51.792Z,81.50
2023-06-10T05:11:19.104Z,81.90
2023-06-10T05:13:46.463Z,82.00
2023-06-10T05:16:13.826Z,81.60
2023-06-10T05:18:41.173Z,81.30
2023-06-10T05:21:08.662Z,81.20
2023-06-10T05:23:35.994Z,81.60
2023-06-10T05:26:03.679Z,81.80
2023-06-10T05:28:30.950Z,82.40
2023-06-10T05:30:58.269Z,82.60
2023-06-10T05:33:25.722Z,82.50
2023-06-10T05:35:53.184Z,82.80
2023-06-10T05:38:20.647Z,82.30
2023-06-10T05:40:48.112Z,81.80
2023-06-10T05:43:17.809Z,80.90
2023-06-10T05:45:45.129Z,80.20
2023-06-10T05:48:12.504Z,79.60
2023-06-10T05:50:43.601Z,79.10
2023-06-10T05:53:16.283Z,78.60
2023-06-10T05:55:47.693Z,78.60
2023-06-10T05:58:15.786Z,78.80
2023-06-10T06:00:43.230Z,78.10
2023-06-10T06:03:11.650Z,77.30
2023-06-10T06:05:39.716Z,76.00
2023-06-10T06:08:10.616Z,75.10
2023-06-10T06:10:38.024Z,74.60
2023-06-10T06:13:12.108Z,73.60
2023-06-10T06:15:39.516Z,72.90
2023-06-10T06:18:07.977Z,72.20
2023-06-10T06:20:43.696Z,71.50
2023-06-10T06:23:32.935Z,70.70
2023-06-10T06:26:33.281Z,69.70
2023-06-10T06:29:19.568Z,69.30
2023-06-10T06:31:47.351Z,68.60
2023-06-10T06:34:16.926Z,68.40
2023-06-10T06:36:44.342Z,67.50
2023-06-10T06:39:11.804Z,67.90
2023-06-10T06:41:42.591Z,67.90
2023-06-10T06:44:13.681Z,67.80
2023-06-10T06:46:41.329Z,68.40
2023-06-10T06:49:14.689Z,68.50
2023-06-10T06:51:49.909Z,68.90
2023-06-10T06:54:22.674Z,69.10
2023-06-10T06:57:18.420Z,69.10
2023-06-10T07:00:09.602Z,69.30
2023-06-10T07:02:43.295Z,69.50
2023-06-10T07:05:19.345Z,69.10
2023-06-10T07:07:47.139Z,68.80
2023-06-10T07:10:16.037Z,69.20
2023-06-10T07:16:18.354Z,68.40
2023-06-10T07:19:33.335Z,68.60
2023-06-10T07:23:08.641Z,67.40
2023-06-10T07:25:50.757Z,66.50
2023-06-10T07:28:22.335Z,65.60
2023-06-10T07:31:33.065Z,65.50
2023-06-10T07:34:22.102Z,66.00
2023-06-10T07:36:51.824Z,67.50
2023-06-10T07:39:23.301Z,67.40
2023-06-10T07:41:55.466Z,67.90
2023-06-10T07:44:29.179Z,68.00
2023-06-10T07:47:07.040Z,68.20
2023-06-10T07:49:36.036Z,67.80
2023-06-10T07:52:08.101Z,67.50
2023-06-10T07:54:39.771Z,67.40
2023-06-10T07:57:27.293Z,67.20
2023-06-10T08:00:32.290Z,65.80
2023-06-10T08:03:38.907Z,66.10
2023-06-10T08:06:30.349Z,66.00
2023-06-10T08:09:05.116Z,66.00
2023-06-10T08:11:37.406Z,66.30
2023-06-10T08:14:15.129Z,66.60
2023-06-10T08:16:44.378Z,67.40
2023-06-10T08:19:12.791Z,67.60
2023-06-10T08:21:41.777Z,67.80
2023-06-10T08:24:23.740Z,67.50
2023-06-10T08:27:07.006Z,67.30
2023-06-10T08:29:42.695Z,67.10
2023-06-10T08:32:10.655Z,67.10
2023-06-10T08:34:38.012Z,66.90
2023-06-10T08:37:15.494Z,66.20
2023-06-10T08:39:44.451Z,65.10
2023-06-10T08:42:38.284Z,65.10
2023-06-10T08:45:19.018Z,65.40
2023-06-10T08:47:50.595Z,65.30
2023-06-10T08:50:23.172Z,65.20
2023-06-10T08:52:58.311Z,64.50
2023-06-10T08:55:33.913Z,64.30
2023-06-10T08:58:02.466Z,64.50
2023-06-10T09:00:32.253Z,64.10
2023-06-10T09:03:04.676Z,64.00
2023-06-10T09:05:37.587Z,63.70
2023-06-10T09:08:16.776Z,63.60
2023-06-10T09:10:44.447Z,64.10
2023-06-10T09:13:11.939Z,64.20
2023-06-10T09:15:43.722Z,64.30
2023-06-10T09:18:11.302Z,64.60
2023-06-10T09:20:41.005Z,65.30
2023-06-10T09:23:10.069Z,66.10
2023-06-10T09:25:39.822Z,66.60
2023-06-10T09:28:17.760Z,66.80
2023-06-10T09:30:45.101Z,66.50
2023-06-10T09:33:18.548Z,66.90
2023-06-10T09:35:51.283Z,67.50
2023-06-10T09:38:24.009Z,68.10
2023-06-10T09:40:54.024Z,68.90
2023-06-10T09:43:22.234Z,69.50
2023-06-10T09:45:55.651Z,70.30
2023-06-10T09:48:24.961Z,70.00
2023-06-10T09:50:53.956Z,70.70
2023-06-10T09:53:22.366Z,70.70
2023-06-10T09:55:49.825Z,72.00
2023-06-10T09:58:17.091Z,71.80
2023-06-10T10:00:44.421Z,72.40
2023-06-10T10:03:23.580Z,71.40
2023-06-10T10:06:01.895Z,71.40
2023-06-10T10:08:29.814Z,71.40
2023-06-10T10:10:59.348Z,71.00
2023-06-10T10:13:29.059Z,72.10
2023-06-10T10:16:02.494Z,71.40
2023-06-10T10:18:32.610Z,71.40
2023-06-10T10:21:10.527Z,72.90
2023-06-10T10:24:02.651Z,72.40
2023-06-10T10:26:33.766Z,72.20
2023-06-10T10:29:12.724Z,72.40
2023-06-10T10:31:45.347Z,73.20
2023-06-10T10:34:23.102Z,73.00
2023-06-10T10:36:53.057Z,72.70
2023-06-10T10:39:21.132Z,72.00
2023-06-10T10:41:50.751Z,71.00
2023-06-10T10:44:19.130Z,69.60
2023-06-10T10:46:51.765Z,69.30
2023-06-10T10:49:21.459Z,69.20
2023-06-10T10:52:13.269Z,68.60
2023-06-10T10:54:47.891Z,67.80
2023-06-10T10:57:21.423Z,66.10
2023-06-10T11:00:06.150Z,66.60
2023-06-10T11:02:43.082Z,64.90
2023-06-10T11:05:16.678Z,63.60
2023-06-10T11:07:57.146Z,63.40
2023-06-10T11:10:39.013Z,62.90
2023-06-10T11:13:16.485Z,63.30
2023-06-10T11:15:50.819Z,63.40
2023-06-10T11:18:39.532Z,62.20
2023-06-10T11:21:07.432Z,62.70
2023-06-10T11:23:43.260Z,61.20
2023-06-10T11:26:35.981Z,60.70
2023-06-10T11:29:12.130Z,59.20
2023-06-10T11:31:51.180Z,59.30
2023-06-10T11:34:26.122Z,59.50
2023-06-10T11:36:54.705Z,59.30
2023-06-10T11:39:25.600Z,58.70
2023-06-10T11:41:53.112Z,58.50
2023-06-10T11:44:20.814Z,58.50
2023-06-10T11:46:51.132Z,57.50
2023-06-10T11:49:18.683Z,57.00
2023-06-10T11:51:51.325Z,56.10
2023-06-10T11:54:19.528Z,55.90
2023-06-10T11:56:48.561Z,55.10
2023-06-10T11:59:16.162Z,54.60
2023-06-10T12:01:45.956Z,55.00
2023-06-10T12:04:19.710Z,54.40
2023-06-10T12:06:52.743Z,54.60
2023-06-10T12:09:29.644Z,54.40
2023-06-10T12:12:04.413Z,54.00
2023-06-10T12:15:03.879Z,53.80
2023-06-10T12:17:35.424Z,53.70
2023-06-10T12:20:09.587Z,54.00
2023-06-10T12:22:45.778Z,54.10
2023-06-10T12:25:14.127Z,53.50
2023-06-10T12:27:53.072Z,54.10
2023-06-10T12:30:26.000Z,53.70
2023-06-10T12:32:54.494Z,54.20
2023-06-10T12:35:29.039Z,54.60
2023-06-10T12:38:12.238Z,57.30
2023-06-10T12:40:41.860Z,58.90
2023-06-10T12:43:09.540Z,60.70
2023-06-10T12:45:44.374Z,62.40
2023-06-10T12:48:18.976Z,63.50
2023-06-10T12:50:53.359Z,65.00
2023-06-10T12:53:24.272Z,66.30
2023-06-10T12:55:53.110Z,67.50
2023-06-10T12:58:24.439Z,70.10
2023-06-10T13:00:54.327Z,73.30
2023-06-10T13:03:22.149Z,71.60
2023-06-10T13:05:49.666Z,70.80
2023-06-10T13:08:16.997Z,71.20
2023-06-10T13:10:44.450Z,73.00
2023-06-10T13:13:11.814Z,73.00
2023-06-10T13:15:43.260Z,72.80
2023-06-10T13:18:13.672Z,71.70
2023-06-10T13:20:41.161Z,72.20
2023-06-10T13:23:10.001Z,71.10
2023-06-10T13:25:37.328Z,71.50
2023-06-10T13:28:04.796Z,70.90
2023-06-10T13:30:32.105Z,70.10
2023-06-10T13:32:59.376Z,69.80
2023-06-10T13:35:26.707Z,69.60
2023-06-10T13:37:54.211Z,68.40
2023-06-10T13:40:21.666Z,67.50
2023-06-10T13:42:52.224Z,66.90
2023-06-10T13:45:19.805Z,66.50
2023-06-10T13:47:48.444Z,67.50
2023-06-10T13:50:16.166Z,66.60
2023-06-10T13:52:43.634Z,66.90
2023-06-10T13:55:11.082Z,67.60
2023-06-10T13:57:38.689Z,67.80
2023-06-10T14:00:06.937Z,67.00
2023-06-10T14:02:34.333Z,67.60
2023-06-10T14:05:02.927Z,67.50
2023-06-10T14:07:30.317Z,68.90
2023-06-10T14:09:59.904Z,68.10
2023-06-10T14:12:27.349Z,67.20
2023-06-10T14:14:54.662Z,64.80
2023-06-10T14:17:23.726Z,67.30
2023-06-10T14:19:51.092Z,66.70
2023-06-10T14:22:18.554Z,66.60
2023-06-10T14:24:45.981Z,64.50
2023-06-10T14:27:15.564Z,64.20
2023-06-10T14:29:42.960Z,64.30
2023-06-10T14:32:11.143Z,63.70
2023-06-10T14:34:39.971Z,64.10
2023-06-10T14:37:08.997Z,64.90
2023-06-10T14:39:36.814Z,63.60
2023-06-10T14:42:04.533Z,62.80
2023-06-10T14:44:32.537Z,62.60
2023-06-10T14:46:59.933Z,60.20
2023-06-10T14:49:27.202Z,59.60
2023-06-10T14:51:54.423Z,60.10
2023-06-10T14:54:22.803Z,59.20
2023-06-10T14:56:50.076Z,58.90
2023-06-10T14:59:17.397Z,58.60
2023-06-10T15:01:44.760Z,59.60
2023-06-10T15:04:13.188Z,60.60
2023-06-10T15:06:40.981Z,60.90
2023-06-10T15:09:08.495Z,62.70
2023-06-10T15:11:39.068Z,63.10
2023-06-10T15:14:06.489Z,61.70
2023-06-10T15:16:33.763Z,64.40
2023-06-10T15:19:01.056Z,66.30
2023-06-10T15:21:28.446Z,67.40
2023-06-10T15:23:55.774Z,68.40
2023-06-10T15:26:23.038Z,69.50
2023-06-10T15:28:50.326Z,69.80
2023-06-10T15:31:17.869Z,69.40
2023-06-10T15:33:47.599Z,70.70
2023-06-10T15:36:15.212Z,69.80
2023-06-10T15:38:42.703Z,69.30
2023-06-10T15:41:09.971Z,68.40
2023-06-10T15:43:37.369Z,70.20
2023-06-10T15:46:04.754Z,71.10
2023-06-10T15:48:33.547Z,71.60
2023-06-10T15:51:00.845Z,72.60
2023-06-10T15:53:28.171Z,73.80
2023-06-10T15:58:43.490Z,74.70
2023-06-10T16:01:20.346Z,75.40
2023-06-10T16:03:47.995Z,76.00
2023-06-10T16:06:16.712Z,76.60
2023-06-10T16:08:44.404Z,76.50
2023-06-10T16:11:11.868Z,78.20
2023-06-10T16:13:42.145Z,75.80
2023-06-10T16:16:12.602Z,76.00
2023-06-10T16:18:42.619Z,77.50
2023-06-10T16:21:10.131Z,77.50
2023-06-10T16:23:38.753Z,77.30
2023-06-10T16:26:06.488Z,75.20
2023-06-10T16:28:33.795Z,75.20
2023-06-10T16:31:01.422Z,75.10
2023-06-10T16:33:28.964Z,75.10
2023-06-10T16:35:56.950Z,74.40
2023-06-10T16:38:27.411Z,74.10
2023-06-10T16:40:54.819Z,76.40
2023-06-10T16:43:24.198Z,74.90
2023-06-10T16:45:51.554Z,73.30
2023-06-10T16:48:21.247Z,73.10
2023-06-10T16:50:48.489Z,73.60
2023-06-10T16:53:16.021Z,73.10
2023-06-10T16:55:50.935Z,73.50
2023-06-10T16:58:18.550Z,75.60
2023-06-10T17:00:50.819Z,76.00
2023-06-10T17:03:18.480Z,77.20
2023-06-10T17:05:45.882Z,76.40
2023-06-10T17:08:13.203Z,77.40
2023-06-10T17:10:41.051Z,73.80
2023-06-10T17:13:08.391Z,74.50
2023-06-10T17:15:35.922Z,75.10
2023-06-10T17:18:03.814Z,74.40
2023-06-10T17:20:32.218Z,75.10
2023-06-10T17:23:00.038Z,76.00
2023-06-10T17:25:27.452Z,76.30
2023-06-10T17:27:54.793Z,76.20
2023-06-10T17:30:22.154Z,76.60
2023-06-10T17:32:51.038Z,77.40
2023-06-10T17:35:18.746Z,78.00
2023-06-10T17:37:46.646Z,78.00
2023-06-10T17:40:14.185Z,79.20
2023-06-10T17:42:41.651Z,80.40
2023-06-10T17:45:10.136Z,80.70
2023-06-10T17:47:43.005Z,80.20
2023-06-10T17:50:24.373Z,80.60
2023-06-10T17:52:57.151Z,81.00
2023-06-10T17:55:24.461Z,79.90
2023-06-10T17:57:51.909Z,81.00
2023-06-10T18:00:19.784Z,78.70
2023-06-10T18:02:47.154Z,78.00
2023-06-10T18:05:14.592Z,81.60
2023-06-10T18:07:43.251Z,82.10
2023-06-10T18:10:11.279Z,82.40
2023-06-10T18:12:39.025Z,81.20
2023-06-10T18:15:24.796Z,82.90
2023-06-10T18:17:55.618Z,79.50
2023-06-10T18:20:23.066Z,82.30
2023-06-10T18:22:50.667Z,81.80
2023-06-10T18:25:18.114Z,82.60
2023-06-10T18:27:46.853Z,82.20
2023-06-10T18:30:14.887Z,82.20
2023-06-10T18:32:46.428Z,83.30
2023-06-10T18:35:14.024Z,83.90
2023-06-10T18:37:41.327Z,80.70
2023-06-10T18:40:10.730Z,79.20
2023-06-10T18:42:38.254Z,82.70
2023-06-10T18:45:18.260Z,83.40
2023-06-10T18:47:57.647Z,84.30
2023-06-10T18:50:27.729Z,84.60
2023-06-10T18:52:56.411Z,84.70
2023-06-10T18:55:37.039Z,84.60
2023-06-10T18:58:05.427Z,84.70
2023-06-10T19:00:32.772Z,85.40
2023-06-10T19:03:00.360Z,83.60
2023-06-10T19:05:31.179Z,83.00
2023-06-10T19:07:58.902Z,83.10
2023-06-10T19:10:55.489Z,83.20
2023-06-10T19:13:25.340Z,83.70
2023-06-10T19:15:52.704Z,84.10
2023-06-10T19:18:20.579Z,85.00
2023-06-10T19:20:48.174Z,85.40
2023-06-10T19:23:38.631Z,85.50
2023-06-10T19:26:06.134Z,84.70
2023-06-10T19:28:33.412Z,84.80
2023-06-10T19:31:00.767Z,85.50
2023-06-10T19:33:28.244Z,84.40
2023-06-10T19:35:56.625Z,84.40
2023-06-10T19:38:52.994Z,84.60
2023-06-10T19:41:21.441Z,84.70
2023-06-10T19:43:48.755Z,85.10
2023-06-10T19:46:35.973Z,84.90
2023-06-10T19:49:03.241Z,86.00
2023-06-10T19:51:30.547Z,86.50
2023-06-10T19:53:57.938Z,86.70
2023-06-10T19:56:26.504Z,87.30
2023-06-10T19:58:53.972Z,87.70
2023-06-10T20:01:21.542Z,88.10
2023-06-10T20:03:49.219Z,88.10
2023-06-10T20:06:16.763Z,88.30
2023-06-10T20:08:44.162Z,88.60
2023-06-10T20:11:12.495Z,88.80
2023-06-10T20:13:42.959Z,88.80
2023-06-10T20:16:28.373Z,85.00
2023-06-10T20:19:04.347Z,83.80
2023-06-10T20:21:38.590Z,83.00
2023-06-10T20:24:13.089Z,85.30
2023-06-10T20:26:53.708Z,82.00
2023-06-10T20:29:29.672Z,82.30
2023-06-10T20:32:00.641Z,83.60
2023-06-10T20:34:33.958Z,81.50
2023-06-10T20:37:04.254Z,81.80
2023-06-10T20:39:40.053Z,81.40
2023-06-10T20:42:16.759Z,83.80
2023-06-10T20:44:47.190Z,85.40
2023-06-10T20:47:14.677Z,86.00
2023-06-10T20:49:49.724Z,86.40
2023-06-10T20:52:19.684Z,84.70
2023-06-10T20:54:49.262Z,86.30
2023-06-10T20:57:29.222Z,87.20
2023-06-10T21:00:09.174Z,87.60
2023-06-10T21:02:40.268Z,87.90
2023-06-10T21:05:13.740Z,87.90
2023-06-10T21:07:48.310Z,87.00
2023-06-10T21:10:22.025Z,87.20
2023-06-10T21:13:14.005Z,87.60
2023-06-10T21:15:43.175Z,87.90
2023-06-10T21:18:13.180Z,88.40
2023-06-10T21:20:42.233Z,88.50
2023-06-10T21:23:09.862Z,89.10
2023-06-10T21:25:37.239Z,88.10
2023-06-10T21:28:05.048Z,88.30
2023-06-10T21:30:32.462Z,87.90
2023-06-10T21:32:59.755Z,88.10
2023-06-10T21:35:29.959Z,88.60
2023-06-10T21:37:57.710Z,89.10
2023-06-10T21:40:25.218Z,87.90
2023-06-10T21:42:53.144Z,88.80
2023-06-10T21:45:21.017Z,89.00
2023-06-10T21:47:48.979Z,87.80
2023-06-10T21:50:16.843Z,86.50
2023-06-10T21:52:44.222Z,86.50
2023-06-10T21:55:12.060Z,87.10
2023-06-10T21:57:39.507Z,87.00
2023-06-10T22:00:14.971Z,87.00
2023-06-10T22:02:43.861Z,87.50
2023-06-10T22:05:11.590Z,87.60
2023-06-10T22:07:39.354Z,87.70
2023-06-10T22:10:07.968Z,88.00
2023-06-10T22:12:35.417Z,88.20
2023-06-10T22:15:04.804Z,88.60
2023-06-10T22:17:32.191Z,89.00
2023-06-10T22:19:59.477Z,89.00
2023-06-10T22:22:26.826Z,89.20
2023-06-10T22:24:57.814Z,89.40
2023-06-10T22:27:26.667Z,89.30
2023-06-10T22:29:54.035Z,89.70
2023-06-10T22:32:21.813Z,89.40
2023-06-10T22:34:49.571Z,89.00
2023-06-10T22:37:17.165Z,89.10
2023-06-10T22:39:44.503Z,89.00
2023-06-10T22:42:11.898Z,88.90
2023-06-10T22:44:39.197Z,88.90
2023-06-10T22:47:07.448Z,89.20
2023-06-10T22:49:34.782Z,89.10
2023-06-10T22:52:02.114Z,89.10
2023-06-10T22:54:29.440Z,88.90
2023-06-10T22:59:43.464Z,89.60
2023-06-10T23:02:10.932Z,89.60
2023-06-10T23:04:38.391Z,89.80
2023-06-10T23:07:06.243Z,89.80
2023-06-10T23:09:33.470Z,90.20
2023-06-10T23:12:00.960Z,89.70
2023-06-10T23:14:28.341Z,89.50
2023-06-10T23:16:55.692Z,89.60
2023-06-10T23:19:23.734Z,90.10
2023-06-10T23:21:57.434Z,90.50
2023-06-10T23:24:32.382Z,90.80
2023-06-10T23:27:02.057Z,91.10
2023-06-10T23:29:30.066Z,91.30
2023-06-10T23:31:57.545Z,91.50
2023-06-10T23:34:24.927Z,91.70
2023-06-10T23:36:53.819Z,91.90
2023-06-10T23:39:23.484Z,91.90
2023-06-10T23:41:51.251Z,91.90
2023-06-10T23:44:18.720Z,92.00
2023-06-10T23:46:46.406Z,91.90
2023-06-10T23:49:13.981Z,91.90
2023-06-10T23:51:42.344Z,92.10
2023-06-10T23:54:09.914Z,92.20
2023-06-10T23:56:37.289Z,92.40
2023-06-10T23:59:04.652Z,92.50
